Time;durP1;ratioP1;P1;durP2;ratioP2;P2;SDS_P1;SDS_P2;PMS_P1;PMS_P2;Temp;Humidity;BMP_temperature;BMP_pressure;BME280_temperature;BME280_humidity;BME280_pressure;Samples;Min_cycle;Max_cycle;Signal;HPM_P1;HPM_P2
2022/09/13 00:01:08;;;;;;;1.20;0.30;;;;;;;12.23;100.00;98795.67;1762766;80;22282;-48
2022/09/13 00:03:34;;;;;;;0.70;0.40;;;;;;;12.23;100.00;98799.23;1729129;81;21345;-48
2022/09/13 00:06:14;;;;;;;0.30;0.30;;;;;;;12.25;100.00;98791.03;1760548;79;21146;-48
2022/09/13 00:08:40;;;;;;;0.45;0.30;;;;;;;12.24;100.00;98790.66;1763456;79;20948;-48
2022/09/13 00:11:09;;;;;;;0.53;0.30;;;;;;;12.24;100.00;98790.17;1765900;80;20904;-48
2022/09/13 00:13:36;;;;;;;0.60;0.37;;;;;;;12.26;100.00;98788.69;1742990;80;20919;-48
2022/09/13 00:16:03;;;;;;;0.80;0.42;;;;;;;12.28;100.00;98789.45;1764924;79;22162;-48
2022/09/13 00:18:30;;;;;;;0.88;0.40;;;;;;;12.27;100.00;98781.84;1764732;80;21607;-48
2022/09/13 00:21:12;;;;;;;0.75;0.40;;;;;;;12.27;100.00;98787.23;1763640;79;21043;-48
2022/09/13 00:23:40;;;;;;;0.70;0.42;;;;;;;12.27;100.00;98782.33;1753922;80;20930;-48
2022/09/13 00:26:09;;;;;;;0.93;0.40;;;;;;;12.26;100.00;98779.24;1764285;79;20903;-48
2022/09/13 00:28:36;;;;;;;1.77;0.40;;;;;;;12.27;100.00;98783.67;1765876;79;20940;-48
2022/09/13 00:31:04;;;;;;;0.90;0.57;;;;;;;12.25;100.00;98775.68;1764736;79;21702;-48
2022/09/13 00:33:31;;;;;;;0.42;0.42;;;;;;;12.24;100.00;98779.38;1765815;79;20946;-48
2022/09/13 00:35:57;;;;;;;0.50;0.42;;;;;;;12.24;100.00;98784.77;1763020;79;21077;-48
2022/09/13 00:38:24;;;;;;;0.88;0.40;;;;;;;12.25;100.00;98783.77;1765487;79;21093;-48
2022/09/13 00:40:50;;;;;;;1.67;0.55;;;;;;;12.26;100.00;98782.81;1761128;79;21038;-48
2022/09/13 00:43:19;;;;;;;1.05;0.70;;;;;;;12.27;100.00;98782.33;1760905;79;21522;-48
2022/09/13 00:45:46;;;;;;;3.80;0.70;;;;;;;12.26;100.00;98784.64;1760757;80;21511;-48
2022/09/13 00:48:18;;;;;;;1.85;0.80;;;;;;;12.28;100.00;98779.52;1761475;79;21091;-48
2022/09/13 00:50:49;;;;;;;1.10;0.80;;;;;;;12.30;100.00;98778.07;1761754;79;21130;-48
2022/09/13 00:53:21;;;;;;;1.00;0.70;;;;;;;12.33;100.00;98781.43;1757486;79;21583;-48
2022/09/13 00:56:00;;;;;;;3.20;1.10;;;;;;;12.33;100.00;98773.82;1761536;79;21194;-48
2022/09/13 00:58:49;;;;;;;1.20;0.90;;;;;;;12.32;100.00;98772.09;1699605;82;21130;-48
2022/09/13 01:01:16;;;;;;;2.33;1.00;;;;;;;12.33;100.00;98776.52;1760030;79;21085;-48
2022/09/13 01:03:42;;;;;;;1.30;0.80;;;;;;;12.31;100.00;98768.52;1761131;79;21066;-48
2022/09/13 01:06:19;;;;;;;1.65;0.90;;;;;;;12.32;100.00;98768.04;1755492;79;21977;-48
2022/09/13 01:08:51;;;;;;;2.20;1.20;;;;;;;12.32;100.00;98772.09;1757786;79;21523;-48
2022/09/13 01:11:24;;;;;;;1.82;1.12;;;;;;;12.32;100.00;98766.69;1759730;79;21102;-48
2022/09/13 01:13:50;;;;;;;3.60;1.27;;;;;;;12.32;100.00;98766.20;1763450;79;21053;-48
2022/09/13 01:16:17;;;;;;;1.62;1.17;;;;;;;12.31;100.00;98766.31;1738482;79;21097;-48
2022/09/13 01:18:45;;;;;;;2.58;1.10;;;;;;;12.29;100.00;98762.85;1764900;79;21555;-45
2022/09/13 01:21:34;;;;;;;4.30;1.52;;;;;;;12.30;100.00;98764.09;1758467;79;21967;-45
2022/09/13 01:24:55;;;;;;;2.60;1.30;;;;;;;12.31;100.00;98763.12;1761023;79;21486;-46
2022/09/13 01:27:33;;;;;;;3.67;1.67;;;;;;;12.32;100.00;98763.99;1761472;79;21317;-46
2022/09/13 01:30:17;;;;;;;2.85;1.20;;;;;;;12.29;100.00;98758.80;1728271;81;21049;-45
2022/09/13 01:33:11;;;;;;;3.20;1.25;;;;;;;12.28;100.00;98757.07;1762887;79;21070;-47
2022/09/13 01:35:50;;;;;;;1.80;1.27;;;;;;;12.27;100.00;98752.64;1763070;79;21145;-47
2022/09/13 01:38:48;;;;;;;3.42;1.32;;;;;;;12.24;100.00;98752.40;1763080;79;21066;-45
2022/09/13 01:41:49;;;;;;;3.10;1.45;;;;;;;12.25;100.00;98752.75;1761330;79;21417;-45
2022/09/13 01:45:10;;;;;;;3.08;1.42;;;;;;;12.27;100.00;98753.99;1759204;79;21493;-49
2022/09/13 01:47:55;;;;;;;3.42;1.32;;;;;;;12.26;100.00;98754.48;1746232;79;21086;-45
2022/09/13 01:50:45;;;;;;;2.20;1.20;;;;;;;12.27;100.00;98753.51;1731132;80;22649;-46
2022/09/13 01:53:35;;;;;;;6.62;1.50;;;;;;;12.30;100.00;98751.09;1733528;80;22597;-46
2022/09/13 01:56:11;;;;;;;2.35;1.17;;;;;;;12.30;100.00;98748.39;1645764;85;21080;-47
2022/09/13 01:58:49;;;;;;;1.70;1.35;;;;;;;12.27;100.00;98745.41;1681295;80;21082;-49
2022/09/13 02:01:31;;;;;;;3.15;1.50;;;;;;;12.27;100.00;98747.25;1701400;80;21106;-49
2022/09/13 02:04:13;;;;;;;1.40;1.30;;;;;;;12.26;100.00;98745.52;1739032;80;21548;-48
2022/09/13 02:06:47;;;;;;;5.83;2.25;;;;;;;12.26;100.00;98747.73;1734915;80;21072;-49
2022/09/13 02:09:17;;;;;;;2.33;1.72;;;;;;;12.25;100.00;98746.00;1732848;80;21014;-49
2022/09/13 02:11:48;;;;;;;5.90;1.60;;;;;;;12.23;100.00;98742.57;1734431;80;21066;-49
2022/09/13 02:14:24;;;;;;;1.92;1.62;;;;;;;12.22;100.00;98742.67;1736402;80;21059;-49
2022/09/13 02:17:10;;;;;;;4.42;1.65;;;;;;;12.20;100.00;98744.61;1733098;80;21502;-49
2022/09/13 02:19:56;;;;;;;4.47;1.62;;;;;;;12.20;100.00;98743.27;1727874;80;21409;-49
2022/09/13 02:22:28;;;;;;;3.27;1.85;;;;;;;12.24;100.00;98750.19;1733733;80;21081;-49
2022/09/13 02:24:57;;;;;;;3.02;2.10;;;;;;;12.26;100.00;98749.56;1730190;80;21071;-49
2022/09/13 02:27:26;;;;;;;3.10;1.98;;;;;;;12.27;100.00;98743.20;1737889;80;21066;-49
2022/09/13 02:29:56;;;;;;;1.50;1.20;;;;;;;12.24;100.00;98748.34;1728572;80;22375;-49
2022/09/13 02:32:33;;;;;;;1.75;1.65;;;;;;;12.25;100.00;98743.81;1731839;80;21058;-49
2022/09/13 02:35:14;;;;;;;3.70;1.37;;;;;;;12.25;100.00;98747.34;1732024;80;21058;-49
2022/09/13 02:37:42;;;;;;;3.60;1.05;;;;;;;12.23;100.00;98743.05;1734397;80;21615;-49
2022/09/13 02:40:14;;;;;;;1.12;1.02;;;;;;;12.22;100.00;98746.72;1729169;80;21070;-50
2022/09/13 02:42:44;;;;;;;1.75;1.02;;;;;;;12.22;100.00;98749.42;1730368;81;21086;-49
2022/09/13 02:45:11;;;;;;;3.52;1.00;;;;;;;12.21;100.00;98748.55;1734856;81;21052;-49
2022/09/13 02:47:59;;;;;;;1.77;1.17;;;;;;;12.22;100.00;98746.72;1732950;80;21502;-50
2022/09/13 02:51:01;;;;;;;1.05;0.95;;;;;;;12.23;100.00;98745.27;1744386;80;20910;-49
2022/09/13 02:54:00;;;;;;;2.35;0.98;;;;;;;12.26;100.00;98746.87;1741837;80;20903;-50
2022/09/13 02:56:35;;;;;;;1.27;1.00;;;;;;;12.27;100.00;98743.20;1743881;80;21446;-49
2022/09/13 02:59:17;;;;;;;1.42;0.82;;;;;;;12.28;100.00;98747.14;1742588;80;20949;-49
2022/09/13 03:02:07;;;;;;;1.17;1.00;;;;;;;12.26;100.00;98742.33;1708468;82;20911;-49
2022/09/13 03:04:33;;;;;;;2.83;0.75;;;;;;;12.27;100.00;98745.90;1741739;80;20950;-49
2022/09/13 03:07:03;;;;;;;1.02;0.78;;;;;;;12.27;100.00;98739.16;1745462;80;20926;-49
2022/09/13 03:09:30;;;;;;;0.72;0.70;;;;;;;12.29;100.00;98738.08;1745376;80;21072;-49
2022/09/13 03:12:14;;;;;;;0.80;0.78;;;;;;;12.33;100.00;98741.44;1746899;80;20910;-49
2022/09/13 03:15:16;;;;;;;1.00;0.90;;;;;;;12.35;100.00;98743.52;1744657;81;20907;-49
2022/09/13 03:18:10;;;;;;;1.82;0.95;;;;;;;12.40;100.00;98740.02;1648346;85;20978;-50
2022/09/13 03:21:09;;;;;;;0.80;0.80;;;;;;;12.44;100.00;98737.47;1650643;85;21389;-50
2022/09/13 03:24:10;;;;;;;1.37;0.80;;;;;;;12.47;100.00;98739.47;1707577;80;21291;-49
2022/09/13 03:26:54;;;;;;;1.30;0.70;;;;;;;12.47;100.00;98739.47;1745081;80;20899;-50
2022/09/13 03:29:46;;;;;;;1.45;1.22;;;;;;;12.50;100.00;98743.80;1708342;82;21290;-49
2022/09/13 03:32:33;;;;;;;0.82;0.82;;;;;;;12.51;100.00;98735.56;1699764;80;20974;-50
2022/09/13 03:35:29;;;;;;;1.42;0.75;;;;;;;12.53;100.00;98738.16;1745535;80;21094;-49
2022/09/13 03:38:07;;;;;;;1.32;0.80;;;;;;;12.55;100.00;98728.59;1739019;80;21797;-50
2022/09/13 03:40:48;;;;;;;1.40;0.95;;;;;;;12.56;100.00;98725.80;1740795;80;21049;-50
2022/09/13 03:43:22;;;;;;;2.75;0.93;;;;;;;12.61;100.00;98723.61;1742864;80;21050;-50
2022/09/13 03:45:55;;;;;;;1.50;0.82;;;;;;;12.64;100.00;98734.69;1744089;80;21094;-50
2022/09/13 03:48:22;;;;;;;1.12;1.02;;;;;;;12.66;100.00;98736.80;1716141;81;21054;-50
2022/09/13 03:50:49;;;;;;;0.98;0.80;;;;;;;12.67;100.00;98739.88;1741917;81;21897;-49
2022/09/13 03:53:26;;;;;;;1.65;1.10;;;;;;;12.67;100.00;98740.73;1708495;82;21600;-49
2022/09/13 03:55:53;;;;;;;2.00;0.80;;;;;;;12.69;100.00;98739.25;1739946;80;21081;-49
2022/09/13 03:58:20;;;;;;;0.98;0.90;;;;;;;12.69;100.00;98741.47;1741420;80;21069;-49
2022/09/13 04:00:47;;;;;;;1.07;1.00;;;;;;;12.68;100.00;98741.08;1742207;80;21091;-49
2022/09/13 04:03:13;;;;;;;1.00;0.90;;;;;;;12.68;100.00;98745.13;1740596;80;21089;-49
2022/09/13 04:05:40;;;;;;;1.30;1.20;;;;;;;12.69;100.00;98744.16;1739827;81;21065;-49
2022/09/13 04:08:07;;;;;;;4.70;1.20;;;;;;;12.72;100.00;98752.05;1742545;80;21515;-49
2022/09/13 04:10:35;;;;;;;1.72;0.90;;;;;;;12.74;100.00;98748.77;1743140;80;21128;-49
2022/09/13 04:13:01;;;;;;;1.22;0.90;;;;;;;12.76;100.00;98745.95;1739644;80;21103;-49
2022/09/13 04:15:29;;;;;;;3.05;0.90;;;;;;;12.76;100.00;98750.84;1740932;81;21501;-49
2022/09/13 04:17:56;;;;;;;1.10;1.00;;;;;;;12.79;100.00;98758.73;1741638;80;21513;-49
2022/09/13 04:20:23;;;;;;;2.15;1.20;;;;;;;12.79;100.00;98760.08;1738934;80;21082;-49
2022/09/13 04:22:54;;;;;;;2.65;1.17;;;;;;;12.80;100.00;98760.94;1739541;80;21054;-49
2022/09/13 04:25:21;;;;;;;1.07;1.05;;;;;;;12.81;100.00;98762.67;1739964;81;21121;-49
2022/09/13 04:27:48;;;;;;;2.95;1.10;;;;;;;12.80;100.00;98763.16;1743269;80;21136;-49
2022/09/13 04:30:15;;;;;;;5.07;1.00;;;;;;;12.78;100.00;98759.70;1710009;81;20993;-50
2022/09/13 04:32:43;;;;;;;1.98;1.00;;;;;;;12.78;100.00;98759.70;1740541;80;21247;-49
2022/09/13 04:35:10;;;;;;;4.20;1.10;;;;;;;12.75;100.00;98755.02;1738036;81;21042;-49
2022/09/13 04:37:38;;;;;;;1.87;0.90;;;;;;;12.72;100.00;98764.69;1741589;80;21139;-49
2022/09/13 04:40:07;;;;;;;1.25;1.15;;;;;;;12.66;100.00;98765.14;1738683;80;21867;-49
2022/09/13 04:42:34;;;;;;;3.62;1.25;;;;;;;12.65;100.00;98767.46;1739356;80;21652;-49
2022/09/13 04:45:00;;;;;;;2.05;1.52;;;;;;;12.67;100.00;98766.87;1737469;81;21094;-50
2022/09/13 04:47:27;;;;;;;3.75;1.22;;;;;;;12.69;100.00;98768.95;1741001;80;21485;-49
2022/09/13 04:49:53;;;;;;;2.25;1.70;;;;;;;12.72;100.00;98768.25;1738252;81;21056;-50
2022/09/13 04:52:20;;;;;;;1.57;1.25;;;;;;;12.74;100.00;98773.06;1734637;80;21148;-50
2022/09/13 04:54:46;;;;;;;2.40;1.72;;;;;;;12.73;100.00;98768.63;1734601;81;21395;-50
2022/09/13 04:57:15;;;;;;;1.98;1.42;;;;;;;12.73;100.00;98767.28;1739428;80;21054;-50
2022/09/13 04:59:42;;;;;;;2.95;2.15;;;;;;;12.74;100.00;98769.02;1742913;81;21069;-50
2022/09/13 05:02:08;;;;;;;3.95;1.72;;;;;;;12.77;100.00;98769.25;1736876;81;21163;-50
2022/09/13 05:04:35;;;;;;;4.80;1.62;;;;;;;12.77;100.00;98771.47;1738941;80;21673;-50
2022/09/13 05:07:01;;;;;;;2.65;1.55;;;;;;;12.78;100.00;98770.98;1739153;81;21102;-50
2022/09/13 05:09:28;;;;;;;2.85;1.40;;;;;;;12.76;100.00;98768.39;1738559;80;21105;-49
2022/09/13 05:11:55;;;;;;;3.62;2.22;;;;;;;12.75;100.00;98768.53;1739552;81;21046;-50
2022/09/13 05:14:21;;;;;;;4.70;1.82;;;;;;;12.75;100.00;98772.58;1739567;80;21516;-49
2022/09/13 05:16:48;;;;;;;6.58;1.80;;;;;;;12.72;100.00;98770.95;1740865;81;21136;-50
2022/09/13 05:19:14;;;;;;;3.72;2.67;;;;;;;12.71;100.00;98777.33;1735129;80;21512;-49
2022/09/13 05:21:43;;;;;;;6.00;2.37;;;;;;;12.71;100.00;98778.67;1735390;80;21085;-50
2022/09/13 05:24:11;;;;;;;2.95;1.90;;;;;;;12.70;100.00;98774.24;1738125;80;21208;-49
2022/09/13 05:26:38;;;;;;;6.10;2.17;;;;;;;12.69;100.00;98781.09;1738730;80;21042;-49
2022/09/13 05:29:04;;;;;;;6.00;1.90;;;;;;;12.69;100.00;98777.05;1736654;80;21099;-48
2022/09/13 05:31:34;;;;;;;4.58;2.10;;;;;;;12.71;100.00;98783.21;1738438;80;22329;-49
2022/09/13 05:34:04;;;;;;;8.90;2.87;;;;;;;12.71;100.00;98776.45;1738145;80;21100;-48
2022/09/13 05:36:32;;;;;;;6.45;3.02;;;;;;;12.70;100.00;98780.99;1739394;80;21033;-48
2022/09/13 05:38:59;;;;;;;6.22;3.85;;;;;;;12.68;100.00;98782.07;1739045;80;21069;-48
2022/09/13 05:41:26;;;;;;;4.90;2.80;;;;;;;12.64;100.00;98790.89;1737122;81;22703;-49
2022/09/13 05:43:52;;;;;;;4.40;4.00;;;;;;;12.60;100.00;98792.07;1737975;80;21113;-48
2022/09/13 05:46:19;;;;;;;6.33;3.75;;;;;;;12.58;100.00;98794.05;1738183;80;21054;-48
2022/09/13 05:48:47;;;;;;;4.95;3.50;;;;;;;12.54;100.00;98793.88;1748775;79;21518;-47
2022/09/13 05:51:18;;;;;;;4.90;4.05;;;;;;;12.48;100.00;98788.43;1770069;79;20876;-47
2022/09/13 05:53:47;;;;;;;8.53;3.98;;;;;;;12.39;100.00;98793.13;1771370;79;22183;-48
2022/09/13 05:56:16;;;;;;;8.80;4.50;;;;;;;12.37;100.00;98800.47;1770527;79;21008;-50
2022/09/13 05:58:44;;;;;;;5.55;4.10;;;;;;;12.37;100.00;98799.11;1767370;79;20876;-50
2022/09/13 06:01:11;;;;;;;7.10;4.22;;;;;;;12.37;100.00;98804.52;1771944;79;21093;-50
2022/09/13 06:03:38;;;;;;;7.15;3.45;;;;;;;12.39;100.00;98811.16;1770670;79;20973;-50
2022/09/13 06:06:05;;;;;;;3.45;3.12;;;;;;;12.39;100.00;98805.76;1761460;79;22008;-48
2022/09/13 06:08:32;;;;;;;4.67;3.47;;;;;;;12.38;100.00;98809.42;1767988;79;21382;-48
2022/09/13 06:11:01;;;;;;;6.25;3.80;;;;;;;12.35;100.00;98817.24;1767676;79;20908;-49
2022/09/13 06:13:28;;;;;;;4.85;3.25;;;;;;;12.35;100.00;98815.89;1770070;79;21595;-49
2022/09/13 06:15:55;;;;;;;5.87;3.75;;;;;;;12.35;100.00;98821.77;1767797;79;20958;-49
2022/09/13 06:18:23;;;;;;;4.03;3.42;;;;;;;12.35;100.00;98827.17;1767599;79;21140;-49
2022/09/13 06:20:49;;;;;;;8.35;3.87;;;;;;;12.36;100.00;98828.42;1771440;79;21037;-49
2022/09/13 06:23:16;;;;;;;6.08;3.72;;;;;;;12.37;100.00;98828.80;1766327;79;20958;-49
2022/09/13 06:25:42;;;;;;;4.72;3.37;;;;;;;12.36;100.00;98830.25;1771199;79;21001;-49
2022/09/13 06:28:09;;;;;;;3.12;2.42;;;;;;;12.34;100.00;98827.66;1768559;79;20878;-48
2022/09/13 06:30:35;;;;;;;3.27;2.60;;;;;;;12.35;100.00;98827.17;1771829;79;21143;-49
2022/09/13 06:33:03;;;;;;;6.25;2.65;;;;;;;12.33;100.00;98828.66;1765922;79;21268;-49
2022/09/13 06:35:30;;;;;;;4.53;3.10;;;;;;;12.31;100.00;98830.59;1767329;79;20926;-49
2022/09/13 06:37:57;;;;;;;6.12;3.00;;;;;;;12.30;100.00;98834.25;1766622;79;21710;-49
2022/09/13 06:40:24;;;;;;;6.78;2.50;;;;;;;12.31;100.00;98838.68;1770055;79;21127;-49
2022/09/13 06:42:50;;;;;;;4.28;2.70;;;;;;;12.33;100.00;98845.33;1767502;80;21808;-50
2022/09/13 06:45:17;;;;;;;4.45;3.52;;;;;;;12.32;100.00;98843.59;1768197;79;21093;-49
2022/09/13 06:47:44;;;;;;;5.90;3.65;;;;;;;12.31;100.00;98840.03;1767637;79;21077;-49
2022/09/13 06:50:12;;;;;;;5.47;2.35;;;;;;;12.27;100.00;98841.20;1758878;79;21058;-48
2022/09/13 06:52:39;;;;;;;3.40;3.20;;;;;;;12.26;100.00;98842.65;1757435;79;21073;-49
2022/09/13 06:55:07;;;;;;;6.83;3.08;;;;;;;12.26;100.00;98849.39;1754940;79;21137;-49
2022/09/13 06:57:34;;;;;;;4.00;3.27;;;;;;;12.25;100.00;98842.30;1756192;79;21049;-48
2022/09/13 07:00:01;;;;;;;5.03;3.62;;;;;;;12.23;100.00;98845.58;1757350;79;21529;-48
2022/09/13 07:02:28;;;;;;;3.85;3.50;;;;;;;12.22;100.00;98839.80;1756432;80;21018;-48
2022/09/13 07:04:55;;;;;;;4.25;3.37;;;;;;;12.19;100.00;98848.09;1759408;79;21093;-49
2022/09/13 07:07:21;;;;;;;4.75;4.35;;;;;;;12.16;100.00;98853.24;1756190;80;21150;-49
2022/09/13 07:09:48;;;;;;;4.08;3.75;;;;;;;12.13;100.00;98857.48;1754129;80;21027;-49
2022/09/13 07:12:14;;;;;;;3.17;2.98;;;;;;;12.07;100.00;98853.39;1758175;79;21083;-49
2022/09/13 07:14:41;;;;;;;4.40;4.00;;;;;;;12.06;100.00;98854.84;1752401;79;21459;-49
2022/09/13 07:17:07;;;;;;;3.77;3.58;;;;;;;12.07;100.00;98865.53;1759279;79;21097;-48
2022/09/13 07:19:34;;;;;;;4.08;3.70;;;;;;;12.07;100.00;98859.27;1759944;80;21139;-49
2022/09/13 07:22:00;;;;;;;4.33;3.12;;;;;;;12.09;100.00;98874.84;1756714;80;21670;-49
2022/09/13 07:24:26;;;;;;;3.83;3.47;;;;;;;12.10;100.00;98868.47;1756868;80;21089;-49
2022/09/13 07:26:53;;;;;;;3.65;3.35;;;;;;;12.12;100.00;98874.64;1751421;80;21516;-49
2022/09/13 07:29:22;;;;;;;5.28;3.90;;;;;;;12.13;100.00;98871.84;1757035;80;21097;-49
2022/09/13 07:31:51;;;;;;;4.22;3.85;;;;;;;12.13;100.00;98866.45;1761835;80;21133;-49
2022/09/13 07:34:20;;;;;;;5.03;4.08;;;;;;;12.15;100.00;98874.92;1759082;79;21073;-48
2022/09/13 07:36:46;;;;;;;4.20;3.90;;;;;;;12.14;100.00;98867.31;1755811;79;21501;-49
2022/09/13 07:39:16;;;;;;;5.95;3.75;;;;;;;12.15;100.00;98874.44;1756532;80;21086;-48
2022/09/13 07:41:43;;;;;;;4.08;3.25;;;;;;;12.13;100.00;98870.97;1758795;79;22555;-49
2022/09/13 07:44:13;;;;;;;4.15;3.50;;;;;;;12.12;100.00;98872.80;1759431;79;21557;-49
2022/09/13 07:46:42;;;;;;;5.55;4.20;;;;;;;12.16;100.00;98872.61;1757684;79;21649;-49
2022/09/13 07:49:08;;;;;;;4.00;3.70;;;;;;;12.19;100.00;98866.98;1755521;79;21092;-49
2022/09/13 07:51:37;;;;;;;5.58;3.27;;;;;;;12.17;100.00;98877.00;1751389;79;21091;-49
2022/09/13 07:54:05;;;;;;;6.25;3.33;;;;;;;12.16;100.00;98879.35;1754471;79;21042;-49
2022/09/13 07:56:34;;;;;;;3.67;3.47;;;;;;;12.16;100.00;98878.00;1724261;81;21965;-50
2022/09/13 07:59:03;;;;;;;4.35;4.05;;;;;;;12.18;100.00;98878.25;1757969;80;21089;-49
2022/09/13 08:01:36;;;;;;;3.35;2.67;;;;;;;12.19;100.00;98876.42;1762080;80;21057;-49
2022/09/13 08:04:08;;;;;;;4.75;3.12;;;;;;;12.22;100.00;98873.05;1753895;80;22386;-49
2022/09/13 08:06:36;;;;;;;8.80;3.60;;;;;;;12.26;100.00;98870.98;1759893;80;21551;-49
2022/09/13 08:09:03;;;;;;;4.05;3.05;;;;;;;12.28;100.00;98874.45;1762379;80;21154;-49
2022/09/13 08:11:40;;;;;;;5.47;3.37;;;;;;;12.30;100.00;98865.77;1757135;79;21044;-49
2022/09/13 08:14:08;;;;;;;3.05;2.85;;;;;;;12.34;100.00;98864.08;1758618;79;21646;-48
2022/09/13 08:16:35;;;;;;;4.42;3.75;;;;;;;12.36;100.00;98861.28;1753290;79;21102;-48
2022/09/13 08:19:03;;;;;;;4.58;3.45;;;;;;;12.40;100.00;98861.47;1759584;79;21086;-48
2022/09/13 08:21:38;;;;;;;5.05;4.53;;;;;;;12.45;100.00;98857.47;1757693;79;21882;-48
2022/09/13 08:24:07;;;;;;;4.87;4.47;;;;;;;12.48;100.00;98854.56;1756900;79;20946;-48
2022/09/13 08:26:34;;;;;;;5.03;3.83;;;;;;;12.51;100.00;98857.51;1756318;79;21113;-49
2022/09/13 08:29:03;;;;;;;4.28;2.92;;;;;;;12.53;100.00;98856.92;1758986;79;21117;-48
2022/09/13 08:31:29;;;;;;;4.42;3.85;;;;;;;12.54;100.00;98844.29;1758207;80;21129;-49
2022/09/13 08:33:56;;;;;;;3.55;3.25;;;;;;;12.54;100.00;98847.86;1755124;79;22419;-48
2022/09/13 08:36:25;;;;;;;4.42;3.27;;;;;;;12.57;100.00;98850.84;1759162;79;21037;-48
2022/09/13 08:38:57;;;;;;;4.25;3.95;;;;;;;12.58;100.00;98851.22;1758997;80;21488;-48
2022/09/13 08:41:47;;;;;;;5.65;3.45;;;;;;;12.63;100.00;98854.44;1756450;79;21085;-48
2022/09/13 08:44:37;;;;;;;5.10;4.42;;;;;;;12.65;100.00;98857.91;1755186;79;22377;-48
2022/09/13 08:47:43;;;;;;;8.65;4.35;;;;;;;12.60;100.00;98858.70;1753939;79;21886;-48
2022/09/13 08:50:21;;;;;;;6.40;4.65;;;;;;;12.53;100.00;98862.80;1740290;80;21123;-48
2022/09/13 08:52:56;;;;;;;4.72;3.52;;;;;;;12.51;100.00;98861.07;1718976;81;21082;-48
2022/09/13 08:55:28;;;;;;;8.53;3.83;;;;;;;12.51;100.00;98861.07;1726776;81;21155;-47
2022/09/13 08:58:04;;;;;;;5.40;5.00;;;;;;;12.51;100.00;98850.28;1723896;81;21397;-48
2022/09/13 09:00:42;;;;;;;4.10;3.83;;;;;;;12.49;100.00;98850.89;1727082;81;21144;-48
2022/09/13 09:03:31;;;;;;;3.80;3.58;;;;;;;12.45;100.00;98847.16;1727313;81;20927;-48
2022/09/13 09:05:58;;;;;;;3.95;3.47;;;;;;;12.42;100.00;98846.00;1724448;81;20939;-48
2022/09/13 09:08:45;;;;;;;7.22;4.28;;;;;;;12.40;100.00;98849.32;1678479;81;21367;-48
2022/09/13 09:11:45;;;;;;;4.28;3.85;;;;;;;12.42;100.00;98850.05;1727610;81;20924;-48
2022/09/13 09:14:31;;;;;;;5.08;3.85;;;;;;;12.40;100.00;98858.77;1701590;81;20966;-48
2022/09/13 09:17:17;;;;;;;5.67;4.25;;;;;;;12.39;100.00;98858.38;1730485;81;20921;-48
2022/09/13 09:20:19;;;;;;;3.90;3.62;;;;;;;12.41;100.00;98846.52;1728201;81;20934;-51
2022/09/13 09:22:46;;;;;;;5.22;4.35;;;;;;;12.40;100.00;98850.19;1688883;83;21462;-51
2022/09/13 09:25:13;;;;;;;8.25;4.15;;;;;;;12.53;100.00;98851.52;1729562;81;20983;-50
2022/09/13 09:27:39;;;;;;;4.55;4.15;;;;;;;12.64;100.00;98839.49;1730346;81;21867;-51
2022/09/13 09:30:10;;;;;;;8.60;4.33;;;;;;;12.74;100.00;98851.38;1729459;81;21027;-51
2022/09/13 09:33:05;;;;;;;5.80;3.00;;;;;;;12.83;100.00;98851.20;1726449;81;21033;-50
2022/09/13 09:35:49;;;;;;;2.85;2.65;;;;;;;12.87;100.00;98848.16;1725457;81;21295;-49
2022/09/13 09:38:32;;;;;;;6.10;2.65;;;;;;;12.92;100.00;98850.55;1727258;81;26065;-49
2022/09/13 09:41:21;;;;;;;3.08;2.77;;;;;;;12.95;100.00;98845.38;1729500;81;21848;-49
2022/09/13 09:43:58;;;;;;;3.40;2.52;;;;;;;12.97;100.00;98845.66;1725720;81;21459;-49
2022/09/13 09:46:31;;;;;;;3.15;2.95;;;;;;;12.95;100.00;98854.84;1730156;81;21089;-48
2022/09/13 09:52:21;;;;;;;2.58;2.37;;;;;;;12.89;100.00;98846.70;1728910;81;21125;-49
2022/09/13 09:54:48;;;;;;;3.60;3.30;;;;;;;12.84;100.00;98850.23;1729262;81;21784;-49
2022/09/13 09:57:17;;;;;;;7.60;3.17;;;;;;;12.82;100.00;98845.42;1733142;81;21685;-49
2022/09/13 09:59:43;;;;;;;1.90;1.80;;;;;;;12.83;100.00;98854.77;1727136;81;21111;-50
2022/09/13 10:02:20;;;;;;;2.33;2.17;;;;;;;12.85;100.00;98850.58;1678660;83;21560;-49
2022/09/13 10:04:55;;;;;;;2.90;2.20;;;;;;;12.88;100.00;98855.77;1725855;81;21050;-49
2022/09/13 10:07:31;;;;;;;3.25;2.12;;;;;;;12.88;100.00;98853.94;1724284;81;21591;-49
2022/09/13 10:10:22;;;;;;;3.55;2.70;;;;;;;12.82;100.00;98850.34;1723637;81;21070;-49
2022/09/13 10:12:50;;;;;;;9.40;3.40;;;;;;;12.78;100.00;98847.95;1722820;81;21675;-50
2022/09/13 10:15:19;;;;;;;5.42;3.90;;;;;;;12.75;100.00;98850.88;1724893;81;21125;-49
2022/09/13 10:18:13;;;;;;;3.60;2.15;;;;;;;12.72;100.00;98849.74;1725956;81;21032;-50
2022/09/13 10:20:39;;;;;;;2.83;2.62;;;;;;;12.67;100.00;98850.57;1727927;81;21416;-49
2022/09/13 10:23:17;;;;;;;8.70;3.12;;;;;;;12.64;100.00;98847.59;1722641;81;21053;-49
2022/09/13 10:25:56;;;;;;;3.25;2.10;;;;;;;12.61;100.00;98847.80;1685380;83;21447;-50
2022/09/13 10:28:23;;;;;;;4.90;2.08;;;;;;;12.59;100.00;98856.48;1707499;81;21109;-50
2022/09/13 10:31:09;;;;;;;3.98;3.58;;;;;;;12.56;100.00;98858.07;1728171;81;21065;-49
2022/09/13 10:33:39;;;;;;;4.15;2.90;;;;;;;12.51;100.00;98866.47;1712563;81;21512;-48
2022/09/13 10:36:13;;;;;;;2.58;2.33;;;;;;;12.47;100.00;98872.20;1723578;81;21049;-47
2022/09/13 10:38:41;;;;;;;2.20;1.75;;;;;;;12.43;100.00;98872.03;1680236;83;26001;-48
2022/09/13 10:41:23;;;;;;;3.42;2.60;;;;;;;12.36;100.00;98875.64;1682497;83;21373;-46
2022/09/13 10:43:59;;;;;;;4.28;2.42;;;;;;;12.31;100.00;98872.90;1725413;81;21350;-49
2022/09/13 10:46:29;;;;;;;5.62;2.50;;;;;;;12.28;100.00;98871.75;1724195;81;21148;-49
2022/09/13 10:48:58;;;;;;;8.33;2.33;;;;;;;12.22;100.00;98874.88;1722296;81;22258;-46
2022/09/13 10:51:36;;;;;;;6.17;2.60;;;;;;;12.19;100.00;98873.73;1729657;80;21074;-47
2022/09/13 10:54:25;;;;;;;5.58;1.80;;;;;;;12.16;100.00;98871.27;1722705;81;21081;-51
2022/09/13 10:56:51;;;;;;;2.27;1.35;;;;;;;12.15;100.00;98881.19;1724386;81;21096;-50
2022/09/13 10:59:29;;;;;;;3.95;1.55;;;;;;;12.12;100.00;98881.38;1724195;81;21157;-48
2022/09/13 11:04:49;;;;;;;3.17;2.13;;;;;;;12.06;100.00;98880.46;1790975;78;26417;-46
2022/09/13 11:07:56;;;;;;;4.15;2.35;;;;;;;12.06;100.00;98880.46;1758010;79;21575;-48
2022/09/13 11:10:40;;;;;;;4.65;1.72;;;;;;;11.99;100.00;98877.29;1762109;79;21168;-50
2022/09/13 11:13:29;;;;;;;4.35;1.80;;;;;;;11.93;100.00;98876.36;1765252;79;21047;-46
2022/09/13 11:18:46;;;;;;;4.50;2.27;;;;;;;11.94;100.00;98872.70;1775085;78;25583;-46
2022/09/13 11:21:34;;;;;;;4.35;2.15;;;;;;;11.94;100.00;98878.09;1742628;80;21011;-47
2022/09/13 11:24:40;;;;;;;3.52;1.80;;;;;;;11.98;100.00;98875.59;1742511;80;21161;-47
2022/09/13 11:27:18;;;;;;;1.90;1.40;;;;;;;12.02;100.00;98875.74;1738704;80;21037;-47
2022/09/13 11:29:59;;;;;;;2.70;1.30;;;;;;;12.07;100.00;98880.36;1745194;80;20981;-47
2022/09/13 11:32:50;;;;;;;4.33;1.55;;;;;;;12.12;100.00;98882.25;1738116;80;21093;-47
2022/09/13 11:35:43;;;;;;;2.95;1.72;;;;;;;12.16;100.00;98883.40;1743690;80;20975;-45
2022/09/13 11:38:24;;;;;;;5.10;1.52;;;;;;;12.15;100.00;98877.14;1710158;81;21456;-49
2022/09/13 11:40:57;;;;;;;4.00;1.40;;;;;;;12.19;100.00;98881.82;1704675;81;22062;-46
2022/09/13 11:43:50;;;;;;;3.70;2.02;;;;;;;12.23;100.00;98874.78;1709741;81;21148;-47
2022/09/13 11:46:38;;;;;;;6.80;1.80;;;;;;;12.28;100.00;98872.61;1706719;81;21060;-47
2022/09/13 11:49:19;;;;;;;6.80;1.85;;;;;;;12.35;100.00;98870.34;1695910;83;21097;-47
2022/09/13 11:52:10;;;;;;;4.85;2.30;;;;;;;12.40;100.00;98870.42;1698348;83;21559;-47
2022/09/13 11:55:00;;;;;;;5.83;2.15;;;;;;;12.49;100.00;98874.32;1696524;83;21347;-45
2022/09/13 11:57:33;;;;;;;5.25;1.62;;;;;;;12.54;100.00;98872.16;1692838;83;21325;-46
2022/09/13 12:00:09;;;;;;;3.87;1.95;;;;;;;12.59;100.00;98871.84;1687802;83;21077;-46
2022/09/13 12:02:45;;;;;;;3.37;1.37;;;;;;;12.63;100.00;98871.51;1678069;83;21153;-46
2022/09/13 12:05:22;;;;;;;4.70;1.30;;;;;;;12.64;100.00;98866.48;1672503;83;21124;-47